TRA651U EHAM-LGKP
Flight info
| Callsign | TRA651U |
|---|---|
| Flight time | N/A |
| Altitude | 35000 |
| Route | EDUPO Z739 MISGO DCT DOJOH DCT DODEN DCT NEGIX DCT DINKU M867 XERUM DCT BAVAX DCT RADIZ DCT NEMEK DCT AKIKA DCT MAVAR DCT TALAS UN130 MES UN139 MASES |
| Aircraft | A21N/M-SDE2E3FGHIJ1RWXY/LB1 |
Departure
| Time | 2026-05-08 04:40 |
|---|---|
| Airport | Amsterdam Airport Schiphol (EHAM) |
Arrival
| Time | N/A |
|---|---|
| Airport | Karpathos Airport (LGKP) |
| Time | Latitude | Longitude | Altitude | Speed | Heading |
|---|---|---|---|---|---|
| 2026-05-08 04:12 | 52.30431 | 4.76669 | 4 ft | 0 kts | 28° |
| 2026-05-08 04:31 | 52.30426 | 4.76665 | 4 ft | 4 kts | 28° |
| 2026-05-08 04:31 | 52.30403 | 4.76644 | 4 ft | 3 kts | 27° |
| 2026-05-08 04:31 | 52.30387 | 4.76627 | 4 ft | 5 kts | 56° |
| 2026-05-08 04:32 | 52.30382 | 4.76591 | 4 ft | 5 kts | 107° |
| 2026-05-08 04:32 | 52.30389 | 4.76564 | 4 ft | 0 kts | 119° |
| 2026-05-08 04:34 | 52.30385 | 4.76572 | 4 ft | 2 kts | 134° |
| 2026-05-08 04:34 | 52.30367 | 4.76583 | 4 ft | 4 kts | 171° |
| 2026-05-08 04:34 | 52.30331 | 4.76580 | 4 ft | 7 kts | 198° |
| 2026-05-08 04:35 | 52.30293 | 4.76516 | 4 ft | 9 kts | 234° |
| 2026-05-08 04:35 | 52.30250 | 4.76414 | 4 ft | 12 kts | 237° |
| 2026-05-08 04:35 | 52.30200 | 4.76282 | 4 ft | 15 kts | 238° |
| 2026-05-08 04:35 | 52.30141 | 4.76127 | 4 ft | 17 kts | 238° |
| 2026-05-08 04:36 | 52.30071 | 4.75945 | 4 ft | 20 kts | 237° |
| 2026-05-08 04:36 | 52.29996 | 4.75744 | 4 ft | 22 kts | 238° |
| 2026-05-08 04:36 | 52.29911 | 4.75522 | 4 ft | 24 kts | 237° |
| 2026-05-08 04:36 | 52.29840 | 4.75328 | 4 ft | 16 kts | 252° |
| 2026-05-08 04:37 | 52.29863 | 4.75154 | 4 ft | 17 kts | 306° |
| 2026-05-08 04:37 | 52.29941 | 4.75010 | 4 ft | 17 kts | 310° |
| 2026-05-08 04:37 | 52.30021 | 4.74860 | 4 ft | 18 kts | 312° |
| 2026-05-08 04:37 | 52.30105 | 4.74708 | 10 ft | 18 kts | 311° |
| 2026-05-08 04:38 | 52.30190 | 4.74547 | 16 ft | 19 kts | 311° |
| 2026-05-08 04:38 | 52.30279 | 4.74386 | 16 ft | 19 kts | 311° |
| 2026-05-08 04:38 | 52.30358 | 4.74234 | 5 ft | 17 kts | 304° |
| 2026-05-08 04:38 | 52.30341 | 4.74063 | 4 ft | 17 kts | 214° |
| 2026-05-08 04:39 | 52.30243 | 4.73944 | 4 ft | 18 kts | 219° |
| 2026-05-08 04:39 | 52.30191 | 4.73780 | 3 ft | 19 kts | 319° |
| 2026-05-08 04:39 | 52.30313 | 4.73752 | 1 ft | 19 kts | 3° |
| 2026-05-08 04:39 | 52.30532 | 4.73771 | 2 ft | 61 kts | 3° |
| 2026-05-08 04:40 | 52.31171 | 4.73833 | 4 ft | 121 kts | 4° |
| 2026-05-08 04:40 | 52.32189 | 4.73922 | 7 ft | 169 kts | 5° |
| 2026-05-08 04:40 | 52.33369 | 4.74004 | 499 ft | 165 kts | 4° |
| 2026-05-08 04:40 | 52.34511 | 4.74191 | 1027 ft | 168 kts | 20° |
| 2026-05-08 04:41 | 52.35613 | 4.75075 | 1289 ft | 187 kts | 31° |
| 2026-05-08 04:41 | 52.36822 | 4.76117 | 1662 ft | 204 kts | 29° |
| 2026-05-08 04:41 | 52.38064 | 4.77357 | 2110 ft | 216 kts | 41° |
| 2026-05-08 04:41 | 52.39195 | 4.79161 | 2416 ft | 238 kts | 47° |
| 2026-05-08 04:42 | 52.40365 | 4.81161 | 2867 ft | 253 kts | 47° |
| 2026-05-08 04:42 | 52.41567 | 4.83305 | 3557 ft | 258 kts | 53° |
| 2026-05-08 04:42 | 52.42355 | 4.85935 | 4253 ft | 260 kts | 78° |
| 2026-05-08 04:42 | 52.42515 | 4.88883 | 5001 ft | 261 kts | 91° |
| 2026-05-08 04:43 | 52.42484 | 4.91868 | 5720 ft | 263 kts | 91° |
| 2026-05-08 04:43 | 52.42450 | 4.94885 | 6407 ft | 267 kts | 92° |
| 2026-05-08 04:43 | 52.42160 | 4.97888 | 7029 ft | 270 kts | 110° |
| 2026-05-08 04:43 | 52.41164 | 5.00481 | 7652 ft | 272 kts | 136° |
| 2026-05-08 04:44 | 52.39663 | 5.02386 | 8335 ft | 275 kts | 147° |
| 2026-05-08 04:44 | 52.38063 | 5.04121 | 9043 ft | 277 kts | 147° |
| 2026-05-08 04:44 | 52.36450 | 5.05889 | 9737 ft | 281 kts | 147° |
| 2026-05-08 04:44 | 52.34824 | 5.07712 | 10319 ft | 288 kts | 147° |
| 2026-05-08 04:45 | 52.33190 | 5.09769 | 10618 ft | 306 kts | 138° |
| 2026-05-08 04:45 | 52.31677 | 5.12365 | 10876 ft | 325 kts | 133° |
| 2026-05-08 04:45 | 52.30134 | 5.15202 | 11108 ft | 342 kts | 133° |
| 2026-05-08 04:45 | 52.28516 | 5.18181 | 11339 ft | 359 kts | 133° |
| 2026-05-08 04:46 | 52.26820 | 5.21287 | 11563 ft | 374 kts | 133° |
| 2026-05-08 04:46 | 52.25051 | 5.24510 | 11769 ft | 388 kts | 132° |
| 2026-05-08 04:46 | 52.23369 | 5.28032 | 11997 ft | 398 kts | 127° |
| 2026-05-08 04:46 | 52.21760 | 5.31741 | 12400 ft | 402 kts | 126° |
| 2026-05-08 04:47 | 52.20144 | 5.35489 | 12828 ft | 405 kts | 126° |
| 2026-05-08 04:47 | 52.18511 | 5.39257 | 13266 ft | 408 kts | 126° |
| 2026-05-08 04:47 | 52.16867 | 5.43038 | 13696 ft | 411 kts | 126° |
| 2026-05-08 04:47 | 52.15208 | 5.46850 | 14051 ft | 414 kts | 126° |
| 2026-05-08 04:48 | 52.13535 | 5.50688 | 14369 ft | 417 kts | 126° |
| 2026-05-08 04:48 | 52.11847 | 5.54548 | 14694 ft | 419 kts | 126° |
| 2026-05-08 04:48 | 52.10173 | 5.58368 | 15049 ft | 422 kts | 126° |
| 2026-05-08 04:48 | 52.08464 | 5.62269 | 15415 ft | 424 kts | 126° |
| 2026-05-08 04:49 | 52.06743 | 5.66181 | 15790 ft | 427 kts | 127° |
| 2026-05-08 04:49 | 52.04878 | 5.69933 | 16102 ft | 428 kts | 131° |
| 2026-05-08 04:49 | 52.02920 | 5.73600 | 16368 ft | 430 kts | 132° |
| 2026-05-08 04:49 | 52.00948 | 5.77263 | 16649 ft | 432 kts | 132° |
| 2026-05-08 04:50 | 51.98964 | 5.80949 | 16925 ft | 434 kts | 132° |
| 2026-05-08 04:50 | 51.96973 | 5.84652 | 17198 ft | 437 kts | 132° |
| 2026-05-08 04:50 | 51.94977 | 5.88377 | 17472 ft | 439 kts | 132° |
| 2026-05-08 04:50 | 51.92976 | 5.92115 | 17746 ft | 441 kts | 132° |
| 2026-05-08 04:51 | 51.90962 | 5.95873 | 18022 ft | 442 kts | 132° |
| 2026-05-08 04:51 | 51.88940 | 5.99637 | 18285 ft | 444 kts | 132° |
| 2026-05-08 04:51 | 51.86905 | 6.03420 | 18529 ft | 446 kts | 132° |
| 2026-05-08 04:51 | 51.84862 | 6.07207 | 18761 ft | 448 kts | 132° |
| 2026-05-08 04:52 | 51.82803 | 6.10999 | 18996 ft | 449 kts | 133° |
| 2026-05-08 04:52 | 51.80734 | 6.14790 | 19224 ft | 451 kts | 133° |
| 2026-05-08 04:52 | 51.78655 | 6.18593 | 19468 ft | 452 kts | 133° |
| 2026-05-08 04:52 | 51.76571 | 6.22407 | 19715 ft | 454 kts | 133° |
| 2026-05-08 04:53 | 51.74479 | 6.26231 | 19962 ft | 455 kts | 133° |
| 2026-05-08 04:53 | 51.72379 | 6.30061 | 20192 ft | 457 kts | 133° |
| 2026-05-08 04:53 | 51.70271 | 6.33899 | 20402 ft | 459 kts | 133° |
| 2026-05-08 04:53 | 51.68149 | 6.37755 | 20633 ft | 460 kts | 133° |
| 2026-05-08 04:54 | 51.66018 | 6.41621 | 20877 ft | 462 kts | 133° |
| 2026-05-08 04:54 | 51.63882 | 6.45492 | 21160 ft | 464 kts | 133° |
| 2026-05-08 04:54 | 51.61735 | 6.49381 | 21460 ft | 465 kts | 133° |
| 2026-05-08 04:54 | 51.59582 | 6.53272 | 21773 ft | 467 kts | 133° |
| 2026-05-08 04:55 | 51.57417 | 6.57182 | 22052 ft | 468 kts | 133° |
| 2026-05-08 04:55 | 51.55248 | 6.61089 | 22298 ft | 470 kts | 133° |
| 2026-05-08 04:55 | 51.53501 | 6.64232 | 22500 ft | 471 kts | 133° |
| 2026-05-08 04:55 | 51.51287 | 6.68213 | 22750 ft | 473 kts | 133° |
| 2026-05-08 04:56 | 51.49091 | 6.72158 | 22992 ft | 475 kts | 133° |
| 2026-05-08 04:56 | 51.46914 | 6.76058 | 23239 ft | 477 kts | 133° |
| 2026-05-08 04:56 | 51.44697 | 6.80025 | 23460 ft | 479 kts | 133° |
| 2026-05-08 04:56 | 51.42466 | 6.84003 | 23766 ft | 479 kts | 133° |
| 2026-05-08 04:57 | 51.40216 | 6.87925 | 24083 ft | 478 kts | 136° |
| 2026-05-08 04:57 | 51.37851 | 6.91652 | 24409 ft | 476 kts | 137° |
| 2026-05-08 04:57 | 51.35482 | 6.95341 | 24758 ft | 475 kts | 137° |
| 2026-05-08 04:57 | 51.33114 | 6.99014 | 25122 ft | 473 kts | 137° |
| 2026-05-08 04:58 | 51.30750 | 7.02672 | 25449 ft | 473 kts | 137° |
| 2026-05-08 04:58 | 51.28389 | 7.06327 | 25789 ft | 472 kts | 137° |
| 2026-05-08 04:58 | 51.26031 | 7.09969 | 26122 ft | 471 kts | 137° |
| 2026-05-08 04:58 | 51.23677 | 7.13599 | 26453 ft | 470 kts | 137° |
| 2026-05-08 04:59 | 51.21327 | 7.17221 | 26751 ft | 470 kts | 137° |
| 2026-05-08 04:59 | 51.18971 | 7.20844 | 27032 ft | 471 kts | 137° |
| 2026-05-08 04:59 | 51.16614 | 7.24467 | 27346 ft | 470 kts | 138° |
| 2026-05-08 04:59 | 51.14263 | 7.28074 | 27662 ft | 469 kts | 138° |
| 2026-05-08 05:00 | 51.11912 | 7.31675 | 27971 ft | 469 kts | 138° |
| 2026-05-08 05:00 | 51.09561 | 7.35270 | 28285 ft | 468 kts | 138° |
| 2026-05-08 05:00 | 51.07218 | 7.38847 | 28615 ft | 467 kts | 138° |
| 2026-05-08 05:00 | 51.04909 | 7.42369 | 28924 ft | 466 kts | 138° |
| 2026-05-08 05:01 | 51.02568 | 7.45931 | 29227 ft | 465 kts | 138° |
| 2026-05-08 05:01 | 51.00233 | 7.49484 | 29538 ft | 465 kts | 138° |
| 2026-05-08 05:01 | 50.97900 | 7.53028 | 29845 ft | 464 kts | 138° |
| 2026-05-08 05:01 | 50.95565 | 7.56564 | 30145 ft | 464 kts | 138° |
| 2026-05-08 05:02 | 50.93232 | 7.60095 | 30346 ft | 464 kts | 138° |
| 2026-05-08 05:02 | 50.90893 | 7.63629 | 30559 ft | 464 kts | 138° |
| 2026-05-08 05:02 | 50.88556 | 7.67155 | 30786 ft | 464 kts | 138° |
| 2026-05-08 05:02 | 50.86215 | 7.70686 | 31016 ft | 464 kts | 139° |
| 2026-05-08 05:03 | 50.83880 | 7.74203 | 31246 ft | 464 kts | 139° |
| 2026-05-08 05:03 | 50.81541 | 7.77707 | 31473 ft | 463 kts | 139° |
| 2026-05-08 05:03 | 50.79197 | 7.81199 | 31696 ft | 463 kts | 139° |
| 2026-05-08 05:03 | 50.76855 | 7.84679 | 31910 ft | 462 kts | 139° |
| 2026-05-08 05:04 | 50.74513 | 7.88158 | 32119 ft | 462 kts | 139° |
| 2026-05-08 05:04 | 50.72172 | 7.91636 | 32325 ft | 462 kts | 139° |
| 2026-05-08 05:04 | 50.69832 | 7.95105 | 32526 ft | 462 kts | 139° |
| 2026-05-08 05:04 | 50.67486 | 7.98577 | 32711 ft | 462 kts | 139° |
| 2026-05-08 05:05 | 50.65176 | 8.01996 | 32882 ft | 462 kts | 139° |
| 2026-05-08 05:05 | 50.62797 | 8.05506 | 33072 ft | 462 kts | 139° |
| 2026-05-08 05:05 | 50.60507 | 8.08953 | 33278 ft | 463 kts | 136° |
| 2026-05-08 05:05 | 50.58376 | 8.12846 | 33445 ft | 464 kts | 131° |
| 2026-05-08 05:06 | 50.56359 | 8.16822 | 33613 ft | 464 kts | 130° |
| 2026-05-08 05:06 | 50.54384 | 8.20743 | 33770 ft | 464 kts | 130° |
| 2026-05-08 05:06 | 50.52377 | 8.24712 | 33921 ft | 464 kts | 130° |
| 2026-05-08 05:06 | 50.50366 | 8.28670 | 34068 ft | 464 kts | 131° |
| 2026-05-08 05:07 | 50.48349 | 8.32623 | 34200 ft | 463 kts | 131° |
| 2026-05-08 05:07 | 50.46331 | 8.36565 | 34301 ft | 464 kts | 131° |
| 2026-05-08 05:07 | 50.42286 | 8.44460 | 34482 ft | 465 kts | 131° |
| 2026-05-08 05:08 | 50.40260 | 8.48409 | 34587 ft | 465 kts | 131° |
| 2026-05-08 05:08 | 50.38227 | 8.52345 | 34694 ft | 464 kts | 132° |
| 2026-05-08 05:08 | 50.33883 | 8.59790 | 34876 ft | 463 kts | 135° |
| 2026-05-08 05:09 | 50.29480 | 8.67139 | 35043 ft | 463 kts | 135° |
| 2026-05-08 05:09 | 50.25074 | 8.74489 | 35143 ft | 464 kts | 135° |
| 2026-05-08 05:10 | 50.18456 | 8.85501 | 35120 ft | 463 kts | 135° |
| 2026-05-08 05:11 | 50.14038 | 8.92824 | 35115 ft | 463 kts | 136° |
| 2026-05-08 05:11 | 50.09616 | 9.00133 | 35115 ft | 463 kts | 136° |
| 2026-05-08 05:12 | 50.05190 | 9.07431 | 35113 ft | 464 kts | 136° |
| 2026-05-08 05:12 | 50.00786 | 9.14667 | 35099 ft | 464 kts | 136° |
| 2026-05-08 05:13 | 49.96332 | 9.21966 | 35116 ft | 465 kts | 136° |
| 2026-05-08 05:13 | 49.91878 | 9.29243 | 35113 ft | 467 kts | 136° |
| 2026-05-08 05:14 | 49.87413 | 9.36516 | 35099 ft | 465 kts | 136° |
| 2026-05-08 05:14 | 49.82945 | 9.43775 | 35097 ft | 464 kts | 136° |
| 2026-05-08 05:15 | 49.78469 | 9.51032 | 35088 ft | 468 kts | 136° |
| 2026-05-08 05:15 | 49.73985 | 9.58281 | 35102 ft | 466 kts | 136° |
| 2026-05-08 05:16 | 49.69495 | 9.65512 | 35099 ft | 465 kts | 136° |
| 2026-05-08 05:16 | 49.65001 | 9.72730 | 35090 ft | 468 kts | 136° |
| 2026-05-08 05:17 | 49.60508 | 9.79929 | 35088 ft | 466 kts | 136° |
| 2026-05-08 05:17 | 49.56002 | 9.87122 | 35086 ft | 465 kts | 136° |
| 2026-05-08 05:18 | 49.51519 | 9.94259 | 35076 ft | 469 kts | 137° |
| 2026-05-08 05:18 | 49.46983 | 10.01461 | 35079 ft | 466 kts | 137° |
| 2026-05-08 05:19 | 49.42444 | 10.08644 | 35085 ft | 469 kts | 137° |
| 2026-05-08 05:19 | 49.38646 | 10.14644 | 35083 ft | 468 kts | 137° |
| 2026-05-08 05:20 | 49.34102 | 10.21808 | 35092 ft | 466 kts | 137° |
| 2026-05-08 05:20 | 49.29559 | 10.28962 | 35102 ft | 470 kts | 137° |
| 2026-05-08 05:21 | 49.25033 | 10.36038 | 35116 ft | 469 kts | 139° |
| 2026-05-08 05:21 | 49.19821 | 10.41874 | 35137 ft | 462 kts | 153° |
| 2026-05-08 05:22 | 49.14284 | 10.46836 | 35136 ft | 463 kts | 153° |
| 2026-05-08 05:22 | 49.08751 | 10.51826 | 35142 ft | 461 kts | 153° |
| 2026-05-08 05:23 | 49.03220 | 10.56843 | 35125 ft | 461 kts | 153° |
| 2026-05-08 05:23 | 48.97721 | 10.61812 | 35141 ft | 460 kts | 153° |
| 2026-05-08 05:24 | 48.92196 | 10.66793 | 35147 ft | 462 kts | 153° |
| 2026-05-08 05:24 | 48.86670 | 10.71764 | 35141 ft | 463 kts | 153° |
| 2026-05-08 05:25 | 48.81227 | 10.76965 | 35113 ft | 465 kts | 144° |
| 2026-05-08 05:25 | 48.76673 | 10.84015 | 35113 ft | 467 kts | 134° |
| 2026-05-08 05:26 | 48.72362 | 10.91400 | 35097 ft | 469 kts | 135° |
| 2026-05-08 05:26 | 48.68008 | 10.98719 | 35087 ft | 469 kts | 135° |
| 2026-05-08 05:27 | 48.63617 | 11.06043 | 35084 ft | 469 kts | 135° |
| 2026-05-08 05:27 | 48.59227 | 11.13346 | 35084 ft | 471 kts | 135° |
| 2026-05-08 05:28 | 48.54835 | 11.20635 | 35077 ft | 469 kts | 135° |
| 2026-05-08 05:28 | 48.50436 | 11.27919 | 35080 ft | 466 kts | 136° |
| 2026-05-08 05:29 | 48.46059 | 11.35135 | 35087 ft | 469 kts | 136° |
| 2026-05-08 05:29 | 48.41660 | 11.42377 | 35094 ft | 467 kts | 136° |
| 2026-05-08 05:30 | 48.37255 | 11.49607 | 35100 ft | 468 kts | 136° |
| 2026-05-08 05:30 | 48.32889 | 11.56754 | 35107 ft | 469 kts | 136° |
| 2026-05-08 05:31 | 48.28478 | 11.63948 | 35110 ft | 467 kts | 136° |
| 2026-05-08 05:31 | 48.23886 | 11.70857 | 35110 ft | 469 kts | 141° |
| 2026-05-08 05:32 | 48.19097 | 11.77435 | 35104 ft | 467 kts | 141° |
| 2026-05-08 05:32 | 48.14301 | 11.84005 | 35102 ft | 465 kts | 141° |
| 2026-05-08 05:33 | 48.09503 | 11.90557 | 35094 ft | 468 kts | 141° |
| 2026-05-08 05:33 | 48.04714 | 11.97101 | 35087 ft | 468 kts | 141° |
| 2026-05-08 05:34 | 47.99895 | 12.03664 | 35073 ft | 466 kts | 141° |
| 2026-05-08 05:34 | 47.95110 | 12.10164 | 35082 ft | 467 kts | 141° |
| 2026-05-08 05:35 | 47.90316 | 12.16656 | 35085 ft | 465 kts | 141° |
| 2026-05-08 05:35 | 47.85515 | 12.23139 | 35084 ft | 464 kts | 141° |
| 2026-05-08 05:36 | 47.80712 | 12.29608 | 35083 ft | 467 kts | 142° |
| 2026-05-08 05:36 | 47.75914 | 12.36057 | 35080 ft | 466 kts | 142° |
| 2026-05-08 05:37 | 47.71129 | 12.42469 | 35084 ft | 463 kts | 142° |
| 2026-05-08 05:37 | 47.66338 | 12.48885 | 35085 ft | 462 kts | 142° |
| 2026-05-08 05:38 | 47.61577 | 12.55329 | 35082 ft | 466 kts | 140° |
| 2026-05-08 05:38 | 47.56915 | 12.61938 | 35082 ft | 465 kts | 140° |
| 2026-05-08 05:39 | 47.52253 | 12.68533 | 35079 ft | 466 kts | 140° |
| 2026-05-08 05:39 | 47.47583 | 12.75121 | 35075 ft | 465 kts | 141° |
| 2026-05-08 05:40 | 47.42902 | 12.81704 | 35071 ft | 463 kts | 141° |
| 2026-05-08 05:40 | 47.38209 | 12.88286 | 35076 ft | 464 kts | 141° |
| 2026-05-08 05:41 | 47.33532 | 12.94839 | 35074 ft | 465 kts | 141° |
| 2026-05-08 05:41 | 47.28835 | 13.01398 | 35070 ft | 467 kts | 141° |
| 2026-05-08 05:42 | 47.24125 | 13.07953 | 35072 ft | 465 kts | 142° |
| 2026-05-08 05:42 | 47.19403 | 13.14507 | 35080 ft | 466 kts | 141° |
| 2026-05-08 05:43 | 47.14689 | 13.21039 | 35078 ft | 467 kts | 142° |
| 2026-05-08 05:43 | 47.10000 | 13.27522 | 35070 ft | 466 kts | 142° |
| 2026-05-08 05:44 | 47.05255 | 13.34057 | 35084 ft | 470 kts | 142° |
| 2026-05-08 05:44 | 47.00508 | 13.40590 | 35080 ft | 468 kts | 142° |
| 2026-05-08 05:45 | 46.95741 | 13.47120 | 35094 ft | 471 kts | 142° |
| 2026-05-08 05:45 | 46.90983 | 13.53631 | 35098 ft | 469 kts | 142° |
| 2026-05-08 05:46 | 46.86220 | 13.60124 | 35083 ft | 467 kts | 142° |
| 2026-05-08 05:46 | 46.81442 | 13.66618 | 35099 ft | 471 kts | 142° |
| 2026-05-08 05:47 | 46.76647 | 13.73134 | 35102 ft | 470 kts | 142° |
| 2026-05-08 05:47 | 46.71842 | 13.79638 | 35104 ft | 472 kts | 143° |
| 2026-05-08 05:48 | 46.67042 | 13.86122 | 35108 ft | 471 kts | 143° |
| 2026-05-08 05:48 | 46.62228 | 13.92606 | 35102 ft | 472 kts | 143° |
| 2026-05-08 05:49 | 46.57394 | 13.99101 | 35100 ft | 471 kts | 143° |
| 2026-05-08 05:49 | 46.52591 | 14.05536 | 35110 ft | 473 kts | 143° |
| 2026-05-08 05:50 | 46.47738 | 14.12023 | 35118 ft | 472 kts | 144° |
| 2026-05-08 05:50 | 46.42935 | 14.18430 | 35126 ft | 470 kts | 144° |
| 2026-05-08 05:51 | 46.38095 | 14.24868 | 35109 ft | 474 kts | 144° |
| 2026-05-08 05:51 | 46.33250 | 14.31291 | 35111 ft | 473 kts | 144° |
| 2026-05-08 05:52 | 46.28400 | 14.37711 | 35112 ft | 472 kts | 144° |
| 2026-05-08 05:52 | 46.23535 | 14.44134 | 35104 ft | 472 kts | 144° |
| 2026-05-08 05:53 | 46.18688 | 14.50516 | 35107 ft | 474 kts | 144° |
| 2026-05-08 05:53 | 46.13825 | 14.56902 | 35111 ft | 472 kts | 144° |
| 2026-05-08 05:54 | 46.08951 | 14.63287 | 35100 ft | 471 kts | 144° |
| 2026-05-08 05:54 | 46.04084 | 14.69648 | 35107 ft | 472 kts | 144° |
| 2026-05-08 05:55 | 45.99227 | 14.75983 | 35092 ft | 470 kts | 144° |
| 2026-05-08 05:55 | 45.94382 | 14.82279 | 35092 ft | 471 kts | 144° |
| 2026-05-08 05:56 | 45.89518 | 14.88588 | 35093 ft | 470 kts | 144° |
| 2026-05-08 05:56 | 45.84646 | 14.94894 | 35094 ft | 470 kts | 144° |
| 2026-05-08 05:57 | 45.79808 | 15.01136 | 35095 ft | 471 kts | 144° |
| 2026-05-08 05:57 | 45.74941 | 15.07406 | 35070 ft | 471 kts | 144° |
| 2026-05-08 05:58 | 45.70063 | 15.13670 | 35086 ft | 471 kts | 144° |
| 2026-05-08 05:58 | 45.65187 | 15.19918 | 35087 ft | 472 kts | 144° |
| 2026-05-08 05:59 | 45.60304 | 15.26164 | 35091 ft | 471 kts | 144° |
| 2026-05-08 05:59 | 45.55556 | 15.32671 | 35090 ft | 474 kts | 139° |
| 2026-05-08 06:00 | 45.51058 | 15.39570 | 35075 ft | 474 kts | 138° |
| 2026-05-08 06:00 | 45.46579 | 15.46412 | 35090 ft | 474 kts | 139° |
| 2026-05-08 06:01 | 45.42091 | 15.53242 | 35090 ft | 473 kts | 139° |
| 2026-05-08 06:01 | 45.37598 | 15.60058 | 35088 ft | 471 kts | 139° |
| 2026-05-08 06:02 | 45.33099 | 15.66870 | 35076 ft | 471 kts | 138° |
| 2026-05-08 06:02 | 45.28592 | 15.73675 | 35085 ft | 473 kts | 138° |
| 2026-05-08 06:03 | 45.24113 | 15.80430 | 35081 ft | 468 kts | 138° |
| 2026-05-08 06:03 | 45.19634 | 15.87161 | 35081 ft | 469 kts | 138° |
| 2026-05-08 06:04 | 45.15191 | 15.93825 | 35087 ft | 470 kts | 138° |
| 2026-05-08 06:04 | 45.10713 | 16.00528 | 35082 ft | 470 kts | 138° |
| 2026-05-08 06:05 | 45.06224 | 16.07231 | 35087 ft | 468 kts | 138° |
| 2026-05-08 06:05 | 45.01733 | 16.13906 | 35060 ft | 467 kts | 138° |
| 2026-05-08 06:06 | 44.97235 | 16.20581 | 35075 ft | 467 kts | 138° |
| 2026-05-08 06:06 | 44.92748 | 16.27224 | 35078 ft | 470 kts | 138° |
| 2026-05-08 06:07 | 44.88259 | 16.33855 | 35081 ft | 468 kts | 138° |
| 2026-05-08 06:07 | 44.83770 | 16.40487 | 35081 ft | 467 kts | 138° |
| 2026-05-08 06:08 | 44.79273 | 16.47105 | 35078 ft | 466 kts | 138° |
| 2026-05-08 06:08 | 44.74797 | 16.53669 | 35057 ft | 467 kts | 138° |
| 2026-05-08 06:09 | 44.70286 | 16.60268 | 35069 ft | 469 kts | 139° |
| 2026-05-08 06:09 | 44.65774 | 16.66858 | 35072 ft | 469 kts | 139° |
| 2026-05-08 06:10 | 44.61256 | 16.73435 | 35074 ft | 468 kts | 139° |
| 2026-05-08 06:10 | 44.56733 | 16.79998 | 35068 ft | 467 kts | 139° |
| 2026-05-08 06:11 | 44.52199 | 16.86563 | 35071 ft | 468 kts | 139° |
| 2026-05-08 06:11 | 44.48440 | 16.92004 | 35070 ft | 469 kts | 139° |
| 2026-05-08 06:12 | 44.43918 | 16.98535 | 35075 ft | 468 kts | 139° |
| 2026-05-08 06:12 | 44.38657 | 17.06111 | 35074 ft | 467 kts | 139° |
| 2026-05-08 06:13 | 44.34851 | 17.11576 | 35065 ft | 470 kts | 139° |
| 2026-05-08 06:13 | 44.30302 | 17.18097 | 35075 ft | 468 kts | 139° |
| 2026-05-08 06:14 | 44.25757 | 17.24598 | 35066 ft | 468 kts | 139° |
| 2026-05-08 06:14 | 44.21258 | 17.31011 | 35079 ft | 465 kts | 139° |
| 2026-05-08 06:15 | 44.16736 | 17.37446 | 35074 ft | 465 kts | 139° |
| 2026-05-08 06:15 | 44.12215 | 17.43869 | 35080 ft | 466 kts | 139° |
| 2026-05-08 06:16 | 44.07686 | 17.50288 | 35080 ft | 464 kts | 139° |
| 2026-05-08 06:16 | 44.03156 | 17.56691 | 35088 ft | 464 kts | 139° |
| 2026-05-08 06:17 | 43.96382 | 17.66232 | 35080 ft | 462 kts | 139° |
| 2026-05-08 06:17 | 43.91873 | 17.72571 | 35080 ft | 462 kts | 139° |
| 2026-05-08 06:18 | 43.87360 | 17.78896 | 35092 ft | 461 kts | 139° |
| 2026-05-08 06:18 | 43.82874 | 17.85171 | 35088 ft | 460 kts | 139° |
| 2026-05-08 06:19 | 43.78351 | 17.91481 | 35094 ft | 460 kts | 139° |
| 2026-05-08 06:19 | 43.73828 | 17.97772 | 35097 ft | 461 kts | 139° |
| 2026-05-08 06:20 | 43.69319 | 18.04038 | 35101 ft | 461 kts | 139° |
| 2026-05-08 06:20 | 43.64807 | 18.10292 | 35097 ft | 461 kts | 139° |
| 2026-05-08 06:21 | 43.60291 | 18.16540 | 35098 ft | 459 kts | 139° |
| 2026-05-08 06:21 | 43.55769 | 18.22780 | 35089 ft | 458 kts | 139° |
| 2026-05-08 06:22 | 43.51255 | 18.28993 | 35082 ft | 460 kts | 139° |
| 2026-05-08 06:22 | 43.46744 | 18.35191 | 35083 ft | 458 kts | 139° |
| 2026-05-08 06:23 | 43.42231 | 18.41377 | 35085 ft | 458 kts | 139° |
| 2026-05-08 06:23 | 43.37739 | 18.47522 | 35083 ft | 456 kts | 140° |
| 2026-05-08 06:24 | 43.33229 | 18.53674 | 35085 ft | 456 kts | 140° |
| 2026-05-08 06:24 | 43.28714 | 18.59815 | 35085 ft | 458 kts | 140° |
| 2026-05-08 06:25 | 43.24195 | 18.65950 | 35090 ft | 456 kts | 140° |
| 2026-05-08 06:25 | 43.19687 | 18.72065 | 35086 ft | 457 kts | 140° |
| 2026-05-08 06:26 | 43.15163 | 18.78187 | 35074 ft | 456 kts | 140° |
| 2026-05-08 06:26 | 43.10633 | 18.84298 | 35083 ft | 457 kts | 140° |
| 2026-05-08 06:27 | 43.06106 | 18.90391 | 35089 ft | 458 kts | 140° |
| 2026-05-08 06:27 | 43.01580 | 18.96469 | 35071 ft | 456 kts | 140° |
| 2026-05-08 06:28 | 42.97080 | 19.02506 | 35085 ft | 452 kts | 140° |
| 2026-05-08 06:28 | 42.92587 | 19.08510 | 35084 ft | 452 kts | 140° |
| 2026-05-08 06:29 | 42.88094 | 19.14512 | 35071 ft | 452 kts | 140° |
| 2026-05-08 06:29 | 42.83592 | 19.20507 | 35081 ft | 453 kts | 140° |
| 2026-05-08 06:30 | 42.79085 | 19.26499 | 35081 ft | 453 kts | 140° |
| 2026-05-08 06:30 | 42.74611 | 19.32428 | 35069 ft | 451 kts | 140° |
| 2026-05-08 06:31 | 42.70112 | 19.38384 | 35067 ft | 452 kts | 140° |
| 2026-05-08 06:31 | 42.65601 | 19.44338 | 35070 ft | 452 kts | 140° |
| 2026-05-08 06:32 | 42.61080 | 19.50299 | 35062 ft | 455 kts | 140° |
| 2026-05-08 06:32 | 42.56542 | 19.56263 | 35063 ft | 454 kts | 140° |
| 2026-05-08 06:33 | 42.51899 | 19.62043 | 35063 ft | 450 kts | 145° |
| 2026-05-08 06:33 | 42.47005 | 19.67374 | 35075 ft | 452 kts | 146° |
| 2026-05-08 06:34 | 42.42109 | 19.72685 | 35079 ft | 452 kts | 146° |
| 2026-05-08 06:34 | 42.37227 | 19.77981 | 35061 ft | 449 kts | 146° |
| 2026-05-08 06:35 | 42.32329 | 19.83280 | 35085 ft | 453 kts | 146° |
| 2026-05-08 06:35 | 42.27424 | 19.88582 | 35067 ft | 451 kts | 146° |
| 2026-05-08 06:36 | 42.22572 | 19.93818 | 35076 ft | 449 kts | 146° |
| 2026-05-08 06:36 | 42.17689 | 19.99073 | 35071 ft | 449 kts | 146° |
| 2026-05-08 06:37 | 42.12800 | 20.04319 | 35072 ft | 449 kts | 146° |
| 2026-05-08 06:37 | 42.07909 | 20.09560 | 35068 ft | 449 kts | 146° |
| 2026-05-08 06:38 | 42.03018 | 20.14786 | 35057 ft | 450 kts | 146° |
| 2026-05-08 06:38 | 41.98112 | 20.20024 | 35046 ft | 449 kts | 146° |
| 2026-05-08 06:39 | 41.93224 | 20.25238 | 35059 ft | 449 kts | 146° |
| 2026-05-08 06:39 | 41.88326 | 20.30438 | 35050 ft | 449 kts | 146° |
| 2026-05-08 06:40 | 41.83428 | 20.35635 | 35058 ft | 448 kts | 146° |
| 2026-05-08 06:40 | 41.78531 | 20.40819 | 35059 ft | 449 kts | 146° |
| 2026-05-08 06:41 | 41.73644 | 20.45984 | 35051 ft | 446 kts | 146° |
| 2026-05-08 06:41 | 41.68774 | 20.51197 | 35063 ft | 451 kts | 142° |
| 2026-05-08 06:42 | 41.64861 | 20.57855 | 35067 ft | 464 kts | 124° |
| 2026-05-08 06:42 | 41.61738 | 20.65437 | 35076 ft | 463 kts | 123° |
| 2026-05-08 06:43 | 41.58610 | 20.72978 | 35075 ft | 464 kts | 123° |
| 2026-05-08 06:43 | 41.55453 | 20.80472 | 35086 ft | 463 kts | 124° |
| 2026-05-08 06:44 | 41.52298 | 20.87934 | 35086 ft | 465 kts | 124° |
| 2026-05-08 06:44 | 41.49122 | 20.95440 | 35085 ft | 466 kts | 124° |
| 2026-05-08 06:45 | 41.45938 | 21.02938 | 35091 ft | 465 kts | 124° |
| 2026-05-08 06:45 | 41.42740 | 21.10446 | 35097 ft | 464 kts | 124° |
| 2026-05-08 06:46 | 41.39543 | 21.17942 | 35087 ft | 468 kts | 124° |
| 2026-05-08 06:46 | 41.36312 | 21.25493 | 35090 ft | 470 kts | 124° |
| 2026-05-08 06:47 | 41.33075 | 21.33045 | 35106 ft | 471 kts | 124° |
| 2026-05-08 06:47 | 41.29829 | 21.40591 | 35109 ft | 470 kts | 124° |
| 2026-05-08 06:48 | 41.26582 | 21.48122 | 35109 ft | 470 kts | 124° |
| 2026-05-08 06:48 | 41.23330 | 21.55654 | 35107 ft | 470 kts | 124° |
| 2026-05-08 06:49 | 41.20075 | 21.63166 | 35102 ft | 470 kts | 124° |
| 2026-05-08 06:49 | 41.16816 | 21.70671 | 35110 ft | 470 kts | 124° |
| 2026-05-08 06:50 | 41.13556 | 21.78159 | 35109 ft | 469 kts | 124° |
| 2026-05-08 06:50 | 41.10278 | 21.85659 | 35106 ft | 471 kts | 125° |
| 2026-05-08 06:51 | 41.06851 | 21.93090 | 35102 ft | 472 kts | 131° |
| 2026-05-08 06:51 | 41.02906 | 22.00063 | 35110 ft | 472 kts | 132° |
| 2026-05-08 06:52 | 40.98941 | 22.06999 | 35107 ft | 472 kts | 132° |
| 2026-05-08 06:52 | 40.94981 | 22.13933 | 35097 ft | 472 kts | 133° |
| 2026-05-08 06:53 | 40.91015 | 22.20872 | 35112 ft | 472 kts | 133° |
| 2026-05-08 06:53 | 40.87044 | 22.27802 | 35117 ft | 473 kts | 133° |
| 2026-05-08 06:54 | 40.83073 | 22.34722 | 35103 ft | 472 kts | 133° |
| 2026-05-08 06:54 | 40.79122 | 22.41580 | 35110 ft | 472 kts | 133° |
| 2026-05-08 06:55 | 40.75128 | 22.48500 | 35092 ft | 476 kts | 134° |
| 2026-05-08 06:55 | 40.71084 | 22.55488 | 35108 ft | 482 kts | 134° |
| 2026-05-08 06:56 | 40.67017 | 22.62511 | 35109 ft | 482 kts | 134° |
| 2026-05-08 06:56 | 40.62944 | 22.69527 | 35109 ft | 481 kts | 134° |
| 2026-05-08 06:57 | 40.58869 | 22.76532 | 35127 ft | 481 kts | 134° |
| 2026-05-08 06:57 | 40.54778 | 22.83539 | 35132 ft | 486 kts | 134° |
| 2026-05-08 06:58 | 40.50657 | 22.90588 | 35140 ft | 486 kts | 134° |
| 2026-05-08 06:58 | 40.46532 | 22.97627 | 35141 ft | 485 kts | 135° |
| 2026-05-08 06:59 | 40.42057 | 23.04149 | 35139 ft | 479 kts | 141° |
| 2026-05-08 06:59 | 40.37460 | 23.10477 | 35132 ft | 479 kts | 141° |
| 2026-05-08 07:00 | 40.32842 | 23.16838 | 35124 ft | 484 kts | 141° |
| 2026-05-08 07:00 | 40.28245 | 23.23174 | 35119 ft | 483 kts | 141° |
| 2026-05-08 07:01 | 40.23614 | 23.29539 | 35116 ft | 483 kts | 141° |
| 2026-05-08 07:01 | 40.18978 | 23.35896 | 35114 ft | 482 kts | 141° |
| 2026-05-08 07:02 | 40.14325 | 23.42263 | 35110 ft | 487 kts | 142° |
| 2026-05-08 07:02 | 40.09615 | 23.48692 | 35115 ft | 492 kts | 142° |
| 2026-05-08 07:03 | 40.04874 | 23.55158 | 35117 ft | 492 kts | 142° |